createdAt,value
2023-10-12T00:02:15.967Z,3.10
2023-10-12T00:04:44.086Z,3.17
2023-10-12T00:07:15.747Z,3.60
2023-10-12T00:09:48.513Z,3.55
2023-10-12T00:12:15.608Z,3.25
2023-10-12T00:14:42.353Z,3.30
2023-10-12T00:17:09.148Z,3.33
2023-10-12T00:19:38.617Z,3.13
2023-10-12T00:22:12.179Z,2.78
2023-10-12T00:24:39.580Z,3.42
2023-10-12T00:27:09.722Z,3.05
2023-10-12T00:29:39.609Z,4.20
2023-10-12T00:32:07.335Z,3.60
2023-10-12T00:34:35.622Z,3.80
2023-10-12T00:37:03.627Z,3.45
2023-10-12T00:39:44.980Z,3.53
2023-10-12T00:42:17.633Z,3.90
2023-10-12T00:44:47.407Z,3.83
2023-10-12T00:47:20.380Z,3.40
2023-10-12T00:49:49.559Z,3.33
2023-10-12T00:52:27.550Z,3.35
2023-10-12T00:55:13.721Z,3.40
2023-10-12T00:57:42.793Z,3.40
2023-10-12T01:00:15.986Z,3.20
2023-10-12T01:02:43.416Z,3.35
2023-10-12T01:05:11.578Z,3.45
2023-10-12T01:07:38.789Z,3.90
2023-10-12T01:10:07.331Z,3.50
2023-10-12T01:12:34.815Z,3.50
2023-10-12T01:15:11.425Z,4.00
2023-10-12T01:17:40.758Z,4.00
2023-10-12T01:20:16.662Z,4.00
2023-10-12T01:22:44.614Z,4.20
2023-10-12T01:25:19.994Z,3.88
2023-10-12T01:27:47.357Z,4.38
2023-10-12T01:30:19.359Z,3.80
2023-10-12T01:32:52.259Z,4.38
2023-10-12T01:35:26.199Z,4.20
2023-10-12T01:38:00.695Z,4.22
2023-10-12T01:40:28.982Z,4.28
2023-10-12T01:42:57.126Z,4.13
2023-10-12T01:45:41.163Z,3.33
2023-10-12T01:48:11.981Z,3.45
2023-10-12T01:50:39.401Z,3.95
2023-10-12T01:53:21.955Z,3.53
2023-10-12T01:55:48.859Z,3.33
2023-10-12T01:58:15.812Z,3.15
2023-10-12T02:00:43.196Z,3.08
2023-10-12T02:03:18.620Z,3.33
2023-10-12T02:05:51.296Z,3.20
2023-10-12T02:08:20.838Z,2.88
2023-10-12T02:10:56.156Z,3.08
2023-10-12T02:13:22.938Z,2.63
2023-10-12T02:15:51.012Z,2.97
2023-10-12T02:18:18.666Z,3.08
2023-10-12T02:21:07.296Z,3.33
2023-10-12T02:23:39.199Z,3.08
2023-10-12T02:26:31.864Z,3.28
2023-10-12T02:29:12.257Z,3.28
2023-10-12T02:31:50.172Z,2.88
2023-10-12T02:34:26.288Z,3.25
2023-10-12T02:37:17.026Z,3.13
2023-10-12T02:39:47.099Z,3.00
2023-10-12T02:42:22.119Z,3.35
2023-10-12T02:45:08.621Z,2.90
2023-10-12T02:47:42.428Z,3.50
2023-10-12T02:50:27.861Z,3.53
2023-10-12T02:52:54.802Z,3.15
2023-10-12T02:55:35.033Z,2.92
2023-10-12T02:58:07.411Z,3.05
2023-10-12T03:00:35.737Z,3.10
2023-10-12T03:03:12.685Z,3.10
2023-10-12T03:05:47.189Z,3.75
2023-10-12T03:08:15.029Z,3.67
2023-10-12T03:11:00.979Z,3.13
2023-10-12T03:13:34.625Z,3.30
2023-10-12T03:16:09.716Z,3.53
2023-10-12T03:18:36.789Z,3.75
2023-10-12T03:21:05.304Z,3.53
2023-10-12T03:23:34.161Z,3.47
2023-10-12T03:26:06.358Z,3.40
2023-10-12T03:28:44.595Z,2.92
2023-10-12T03:31:23.371Z,3.10
2023-10-12T03:33:55.784Z,3.40
2023-10-12T03:36:24.157Z,3.20
2023-10-12T03:39:19.163Z,3.38
2023-10-12T03:41:47.315Z,3.00
2023-10-12T03:44:20.356Z,3.28
2023-10-12T03:46:57.707Z,3.50
2023-10-12T03:49:32.458Z,3.53
2023-10-12T03:52:00.814Z,3.20
2023-10-12T03:54:29.449Z,3.30
2023-10-12T03:57:07.465Z,3.50
2023-10-12T03:59:44.640Z,3.63
2023-10-12T04:02:15.176Z,3.42
2023-10-12T04:04:52.617Z,3.47
2023-10-12T04:07:20.364Z,3.80
2023-10-12T04:09:52.140Z,3.53
2023-10-12T04:12:32.625Z,3.20
2023-10-12T04:15:05.919Z,3.17
2023-10-12T04:17:42.581Z,3.60
2023-10-12T04:20:20.407Z,3.28
2023-10-12T04:23:34.625Z,3.50
2023-10-12T04:26:10.269Z,3.47
2023-10-12T04:28:37.702Z,3.35
2023-10-12T04:31:34.232Z,3.33
2023-10-12T04:34:06.964Z,3.25
2023-10-12T04:36:45.037Z,3.55
2023-10-12T04:39:17.238Z,3.53
2023-10-12T04:41:56.557Z,3.42
2023-10-12T04:44:40.321Z,3.55
2023-10-12T04:47:12.547Z,3.15
2023-10-12T04:49:57.664Z,3.13
2023-10-12T04:52:34.380Z,3.17
2023-10-12T04:55:20.996Z,3.65
2023-10-12T04:57:50.294Z,4.20
2023-10-12T05:00:24.564Z,3.15
2023-10-12T05:02:57.552Z,3.60
2023-10-12T05:05:43.460Z,3.00
2023-10-12T05:08:10.215Z,3.58
2023-10-12T05:10:46.966Z,3.00
2023-10-12T05:13:22.586Z,3.55
2023-10-12T05:15:55.600Z,3.33
2023-10-12T05:18:24.232Z,3.40
2023-10-12T05:20:52.097Z,3.78
2023-10-12T05:23:23.102Z,3.20
2023-10-12T05:26:08.223Z,3.58
2023-10-12T05:28:38.089Z,3.65
2023-10-12T05:31:13.690Z,3.20
2023-10-12T05:34:02.007Z,3.33
2023-10-12T05:36:31.582Z,3.30
2023-10-12T05:39:13.680Z,3.90
2023-10-12T05:41:41.444Z,3.17
2023-10-12T05:44:16.028Z,3.60
2023-10-12T05:46:51.331Z,3.50
2023-10-12T05:49:23.454Z,3.70
2023-10-12T05:51:50.173Z,3.55
2023-10-12T05:54:21.149Z,3.28
2023-10-12T05:56:49.981Z,3.30
2023-10-12T05:59:18.557Z,3.20
2023-10-12T06:01:46.720Z,3.60
2023-10-12T06:04:15.723Z,3.00
2023-10-12T06:06:43.631Z,3.20
2023-10-12T06:09:12.820Z,3.25
2023-10-12T06:11:44.259Z,3.45
2023-10-12T06:14:14.563Z,3.30
2023-10-12T06:16:41.898Z,3.50
2023-10-12T06:19:22.482Z,3.65
2023-10-12T06:21:59.277Z,3.85
2023-10-12T06:24:33.776Z,3.75
2023-10-12T06:27:09.875Z,3.10
2023-10-12T06:29:37.269Z,3.67
2023-10-12T06:32:10.884Z,3.45
2023-10-12T06:34:38.510Z,3.58
2023-10-12T06:37:25.294Z,3.38
2023-10-12T06:40:37.537Z,3.95
2023-10-12T06:43:23.000Z,4.03
2023-10-12T06:45:51.805Z,3.67
2023-10-12T06:48:24.359Z,3.55
2023-10-12T06:51:02.423Z,3.95
2023-10-12T06:53:34.312Z,3.60
2023-10-12T06:56:16.491Z,3.53
2023-10-12T06:58:43.710Z,3.75
2023-10-12T07:01:19.169Z,3.30
2023-10-12T07:03:48.657Z,3.50
2023-10-12T07:06:16.516Z,3.20
2023-10-12T07:08:47.006Z,3.58
2023-10-12T07:11:14.805Z,3.67
2023-10-12T07:13:41.878Z,3.60
2023-10-12T07:16:08.780Z,3.67
2023-10-12T07:18:35.786Z,4.03
2023-10-12T07:21:06.727Z,4.10
2023-10-12T07:23:36.211Z,4.00
2023-10-12T07:26:10.541Z,4.15
2023-10-12T07:28:40.229Z,4.15
2023-10-12T07:31:31.449Z,3.95
2023-10-12T07:34:01.828Z,3.63
2023-10-12T07:36:53.407Z,4.45
2023-10-12T07:39:21.473Z,4.70
2023-10-12T07:41:56.649Z,4.57
2023-10-12T07:44:24.729Z,4.18
2023-10-12T07:46:56.851Z,4.10
2023-10-12T07:49:37.508Z,4.07
2023-10-12T07:52:22.510Z,4.30
2023-10-12T07:54:57.933Z,3.95
2023-10-12T07:57:30.021Z,3.85
2023-10-12T08:00:16.429Z,4.00
2023-10-12T08:03:01.546Z,4.00
2023-10-12T08:05:42.840Z,3.70
2023-10-12T08:08:18.178Z,3.95
2023-10-12T08:10:59.231Z,4.05
2023-10-12T08:13:27.317Z,3.80
2023-10-12T08:15:59.662Z,4.10
2023-10-12T08:18:46.926Z,4.20
2023-10-12T08:21:24.242Z,3.97
2023-10-12T08:23:57.554Z,3.97
2023-10-12T08:26:35.952Z,3.90
2023-10-12T08:29:09.582Z,3.83
2023-10-12T08:31:44.210Z,4.10
2023-10-12T08:34:34.778Z,3.97
2023-10-12T08:37:18.323Z,4.10
2023-10-12T08:39:50.804Z,4.10
2023-10-12T08:42:39.928Z,4.03
2023-10-12T08:45:09.453Z,4.30
2023-10-12T08:47:45.226Z,5.22
2023-10-12T08:50:26.847Z,4.60
2023-10-12T08:52:59.972Z,4.80
2023-10-12T08:55:32.040Z,5.10
2023-10-12T08:58:16.046Z,4.10
2023-10-12T09:00:45.564Z,4.20
2023-10-12T09:03:29.960Z,4.43
2023-10-12T09:06:08.190Z,4.78
2023-10-12T09:08:41.859Z,4.55
2023-10-12T09:11:26.419Z,4.40
2023-10-12T09:13:57.903Z,4.68
2023-10-12T09:16:45.270Z,5.03
2023-10-12T09:19:30.559Z,4.90
2023-10-12T09:24:55.225Z,4.75
2023-10-12T09:27:28.775Z,4.97
2023-10-12T09:29:57.894Z,4.40
2023-10-12T09:32:26.529Z,5.32
2023-10-12T09:35:11.631Z,5.13
2023-10-12T09:37:44.650Z,4.40
2023-10-12T09:40:25.016Z,4.63
2023-10-12T09:42:56.079Z,5.07
2023-10-12T09:45:35.462Z,4.45
2023-10-12T09:48:07.380Z,4.20
2023-10-12T09:50:36.106Z,4.63
2023-10-12T09:53:13.232Z,3.97
2023-10-12T09:55:46.023Z,4.25
2023-10-12T09:58:15.501Z,4.60
2023-10-12T10:00:57.381Z,4.75
2023-10-12T10:03:39.253Z,4.65
2023-10-12T10:06:29.034Z,4.93
2023-10-12T10:09:10.692Z,5.80
2023-10-12T10:11:38.758Z,5.45
2023-10-12T10:14:09.984Z,5.15
2023-10-12T10:16:47.268Z,5.78
2023-10-12T10:19:15.281Z,5.72
2023-10-12T10:21:50.604Z,4.78
2023-10-12T10:24:20.457Z,4.63
2023-10-12T10:26:58.509Z,5.13
2023-10-12T10:29:42.233Z,5.03
2023-10-12T10:32:14.843Z,4.45
2023-10-12T10:34:43.331Z,4.43
2023-10-12T10:37:12.217Z,4.95
2023-10-12T10:39:46.272Z,4.20
2023-10-12T10:42:19.215Z,4.50
2023-10-12T10:47:30.309Z,5.72
2023-10-12T10:50:00.754Z,5.70
2023-10-12T10:52:33.166Z,5.82
2023-10-12T10:55:00.853Z,5.90
2023-10-12T10:57:38.296Z,6.75
2023-10-12T11:00:12.263Z,6.70
2023-10-12T11:02:41.121Z,6.43
2023-10-12T11:05:18.707Z,6.40
2023-10-12T11:10:34.348Z,6.60
2023-10-12T11:13:04.527Z,5.93
2023-10-12T11:15:31.234Z,5.32
2023-10-12T11:18:08.003Z,5.80
2023-10-12T11:20:46.287Z,5.70
2023-10-12T11:23:15.288Z,5.47
2023-10-12T11:25:42.163Z,5.85
2023-10-12T11:28:19.973Z,5.03
2023-10-12T11:30:47.038Z,5.50
2023-10-12T11:33:34.442Z,5.75
2023-10-12T11:36:04.020Z,5.00
2023-10-12T11:38:31.391Z,5.55
2023-10-12T11:43:53.839Z,5.72
2023-10-12T11:46:25.948Z,5.43
2023-10-12T11:49:16.531Z,5.60
2023-10-12T11:51:51.121Z,6.10
2023-10-12T11:54:23.274Z,5.80
2023-10-12T11:56:57.951Z,5.47
2023-10-12T11:59:31.638Z,6.30
2023-10-12T12:02:07.434Z,6.85
2023-10-12T12:07:11.439Z,4.97
2023-10-12T12:09:48.868Z,4.57
2023-10-12T12:12:21.311Z,4.47
2023-10-12T12:14:49.169Z,4.30
2023-10-12T12:17:20.292Z,3.72
2023-10-12T12:20:27.023Z,4.20
2023-10-12T12:23:04.577Z,4.43
2023-10-12T12:25:34.404Z,3.83
2023-10-12T12:28:14.666Z,4.22
2023-10-12T12:30:59.041Z,3.95
2023-10-12T12:33:26.981Z,3.90
2023-10-12T12:38:54.086Z,3.80
2023-10-12T12:41:28.944Z,3.75
2023-10-12T12:43:59.314Z,4.00
2023-10-12T12:46:26.431Z,3.53
2023-10-12T12:49:01.610Z,3.95
2023-10-12T12:51:31.587Z,4.13
2023-10-12T12:53:59.348Z,3.88
2023-10-12T12:56:26.319Z,4.80
2023-10-12T12:58:54.983Z,5.50
2023-10-12T13:04:03.938Z,5.25
2023-10-12T13:06:33.955Z,6.00
2023-10-12T13:09:06.401Z,5.25
2023-10-12T13:11:35.468Z,5.30
2023-10-12T13:14:03.479Z,5.15
2023-10-12T13:16:54.101Z,5.40
2023-10-12T13:19:27.709Z,5.80
2023-10-12T13:22:04.467Z,5.90
2023-10-12T13:24:35.953Z,5.75
2023-10-12T13:27:11.677Z,5.32
2023-10-12T13:29:58.070Z,5.50
2023-10-12T13:32:27.099Z,5.82
2023-10-12T13:34:58.432Z,5.30
2023-10-12T13:40:15.715Z,4.90
2023-10-12T13:42:46.011Z,4.63
2023-10-12T13:45:19.143Z,4.80
2023-10-12T13:47:47.342Z,4.55
2023-10-12T13:50:15.039Z,5.13
2023-10-12T13:52:59.818Z,5.55
2023-10-12T13:55:27.255Z,6.28
2023-10-12T13:57:58.057Z,6.43
2023-10-12T14:00:29.785Z,6.53
2023-10-12T14:03:11.108Z,7.07
2023-10-12T14:05:44.532Z,6.18
2023-10-12T14:08:12.701Z,6.88
2023-10-12T14:10:52.148Z,7.10
2023-10-12T14:13:23.810Z,7.95
2023-10-12T14:15:51.839Z,6.97
2023-10-12T14:18:22.567Z,6.93
2023-10-12T14:20:55.826Z,6.90
2023-10-12T14:23:26.938Z,7.63
2023-10-12T14:25:57.607Z,7.38
2023-10-12T14:28:31.814Z,7.65
2023-10-12T14:33:53.384Z,7.30
2023-10-12T14:36:20.531Z,7.82
2023-10-12T14:38:55.142Z,7.63
2023-10-12T14:41:31.370Z,7.18
2023-10-12T14:44:00.163Z,7.63
2023-10-12T14:46:33.040Z,7.10
2023-10-12T14:49:10.431Z,7.60
2023-10-12T14:51:38.422Z,6.93
2023-10-12T14:54:13.360Z,7.03
2023-10-12T14:56:43.592Z,8.00
2023-10-12T14:59:23.930Z,7.25
2023-10-12T15:02:03.585Z,5.50
2023-10-12T15:04:33.163Z,4.30
2023-10-12T15:09:58.264Z,4.03
2023-10-12T15:12:29.137Z,3.92
2023-10-12T15:14:56.419Z,3.90
2023-10-12T15:17:23.103Z,4.05
2023-10-12T15:19:49.767Z,3.50
2023-10-12T15:22:19.468Z,6.10
2023-10-12T15:24:50.627Z,4.22
2023-10-12T15:27:22.620Z,3.17
2023-10-12T15:29:54.182Z,4.30
2023-10-12T15:32:24.565Z,3.47
2023-10-12T15:34:57.253Z,4.03
2023-10-12T15:37:25.264Z,3.50
2023-10-12T15:40:03.445Z,3.58
2023-10-12T15:42:55.673Z,3.60
2023-10-12T15:45:24.714Z,3.35
2023-10-12T15:48:05.143Z,3.35
2023-10-12T15:50:32.209Z,3.15
2023-10-12T15:53:07.336Z,2.90
2023-10-12T15:55:35.511Z,3.20
2023-10-12T15:58:12.078Z,3.38
2023-10-12T16:00:41.464Z,2.80
2023-10-12T16:03:08.738Z,2.40
2023-10-12T16:05:36.851Z,2.60
2023-10-12T16:08:12.504Z,2.33
2023-10-12T16:10:41.910Z,2.55
2023-10-12T16:13:11.992Z,2.28
2023-10-12T16:15:39.625Z,2.20
2023-10-12T16:18:16.608Z,2.28
2023-10-12T16:20:44.795Z,2.42
2023-10-12T16:23:12.691Z,2.45
2023-10-12T16:25:41.927Z,2.47
2023-10-12T16:28:16.702Z,3.05
2023-10-12T16:30:56.998Z,2.70
2023-10-12T16:33:35.599Z,2.78
2023-10-12T16:36:06.776Z,2.47
2023-10-12T16:38:33.710Z,3.05
2023-10-12T16:41:01.348Z,3.10
2023-10-12T16:43:31.728Z,2.90
2023-10-12T16:45:58.624Z,3.00
2023-10-12T16:48:29.098Z,2.95
2023-10-12T16:50:56.119Z,2.58
2023-10-12T16:53:23.067Z,3.00
2023-10-12T16:55:49.806Z,2.67
2023-10-12T16:58:18.198Z,2.80
2023-10-12T17:00:45.618Z,3.15
2023-10-12T17:03:12.446Z,3.10
2023-10-12T17:05:39.233Z,2.90
2023-10-12T17:08:07.328Z,3.42
2023-10-12T17:10:35.011Z,3.38
2023-10-12T17:13:02.030Z,3.25
2023-10-12T17:15:28.926Z,3.65
2023-10-12T17:17:57.304Z,3.58
2023-10-12T17:20:24.451Z,4.38
2023-10-12T17:22:52.403Z,3.67
2023-10-12T17:25:19.416Z,4.43
2023-10-12T17:27:46.546Z,4.85
2023-10-12T17:30:13.743Z,5.72
2023-10-12T17:32:41.215Z,6.07
2023-10-12T17:35:12.524Z,6.07
2023-10-12T17:37:39.997Z,5.63
2023-10-12T17:40:08.503Z,5.65
2023-10-12T17:42:35.294Z,5.90
2023-10-12T17:45:09.506Z,5.32
2023-10-12T17:47:38.811Z,5.85
2023-10-12T17:50:13.050Z,6.65
2023-10-12T17:52:41.902Z,7.38
2023-10-12T17:55:09.834Z,8.05
2023-10-12T17:57:37.149Z,7.63
2023-10-12T18:00:08.909Z,8.13
2023-10-12T18:02:38.575Z,8.40
2023-10-12T18:05:09.370Z,7.95
2023-10-12T18:07:37.267Z,7.40
2023-10-12T18:10:05.789Z,7.57
2023-10-12T18:12:33.779Z,9.52
2023-10-12T18:15:01.703Z,10.13
2023-10-12T18:17:28.561Z,10.07
2023-10-12T18:19:55.361Z,10.25
2023-10-12T18:22:22.205Z,9.95
2023-10-12T18:24:53.875Z,9.32
2023-10-12T18:27:26.242Z,9.70
2023-10-12T18:29:52.966Z,10.43
2023-10-12T18:32:23.455Z,9.55
2023-10-12T18:34:55.542Z,9.35
2023-10-12T18:37:22.279Z,9.02
2023-10-12T18:39:49.003Z,10.05
2023-10-12T18:42:15.819Z,9.52
2023-10-12T18:44:45.292Z,10.60
2023-10-12T18:47:17.036Z,8.93
2023-10-12T18:49:59.341Z,7.93
2023-10-12T18:52:34.216Z,7.05
2023-10-12T18:55:01.001Z,7.18
2023-10-12T18:57:27.748Z,6.50
2023-10-12T18:59:55.275Z,6.85
2023-10-12T19:02:22.145Z,6.70
2023-10-12T19:04:50.313Z,6.78
2023-10-12T19:07:17.595Z,6.50
2023-10-12T19:09:44.311Z,6.43
2023-10-12T19:12:11.048Z,6.65
2023-10-12T19:14:37.742Z,6.82
2023-10-12T19:17:05.463Z,6.40
2023-10-12T19:19:32.283Z,6.72
2023-10-12T19:21:59.090Z,6.43
2023-10-12T19:24:28.928Z,7.13
2023-10-12T19:26:59.103Z,6.45
2023-10-12T19:29:32.462Z,6.70
2023-10-12T19:31:59.284Z,7.78
2023-10-12T19:34:29.851Z,10.20
2023-10-12T19:36:57.264Z,10.90
2023-10-12T19:39:23.994Z,11.70
2023-10-12T19:41:52.217Z,12.38
2023-10-12T19:44:20.507Z,11.40
2023-10-12T19:46:47.317Z,12.65
2023-10-12T19:49:14.157Z,12.38
2023-10-12T19:51:41.541Z,12.35
2023-10-12T19:54:33.363Z,12.15
2023-10-12T19:57:07.081Z,11.55
2023-10-12T19:59:39.785Z,12.93
2023-10-12T20:02:26.826Z,13.00
2023-10-12T20:05:02.199Z,13.95
2023-10-12T20:07:29.667Z,11.02
2023-10-12T20:09:56.488Z,9.75
2023-10-12T20:12:26.840Z,10.63
2023-10-12T20:14:53.981Z,10.93
2023-10-12T20:17:20.884Z,11.52
2023-10-12T20:19:49.099Z,12.90
2023-10-12T20:22:15.848Z,12.30
2023-10-12T20:24:43.427Z,12.38
2023-10-12T20:27:10.219Z,12.20
2023-10-12T20:29:39.844Z,12.48
2023-10-12T20:32:06.555Z,12.20
2023-10-12T20:34:35.235Z,11.15
2023-10-12T20:37:02.246Z,12.63
2023-10-12T20:39:29.002Z,12.85
2023-10-12T20:41:56.345Z,13.45
2023-10-12T20:44:23.092Z,13.63
2023-10-12T20:46:49.906Z,12.00
2023-10-12T20:49:21.082Z,12.13
2023-10-12T20:51:49.887Z,11.13
2023-10-12T20:54:16.839Z,11.32
2023-10-12T20:56:43.582Z,12.10
2023-10-12T20:59:17.277Z,11.93
2023-10-12T21:01:48.377Z,11.38
2023-10-12T21:04:18.427Z,10.57
2023-10-12T21:06:45.534Z,10.35
2023-10-12T21:09:15.224Z,8.52
2023-10-12T21:11:46.364Z,9.88
2023-10-12T21:14:21.083Z,9.52
2023-10-12T21:16:50.234Z,6.80
2023-10-12T21:19:19.528Z,6.63
2023-10-12T21:21:50.474Z,6.57
2023-10-12T21:24:22.832Z,6.22
2023-10-12T21:26:50.963Z,5.90
2023-10-12T21:29:22.400Z,6.25
2023-10-12T21:31:51.123Z,6.57
2023-10-12T21:34:25.026Z,6.25
2023-10-12T21:36:52.522Z,6.30
2023-10-12T21:39:35.769Z,7.57
2023-10-12T21:42:03.469Z,7.50
2023-10-12T21:44:30.942Z,10.40
2023-10-12T21:47:03.021Z,10.48
2023-10-12T21:49:44.083Z,11.40
2023-10-12T21:52:10.879Z,10.63
2023-10-12T21:54:38.085Z,11.85
2023-10-12T21:57:09.517Z,11.13
2023-10-12T21:59:37.693Z,11.88
2023-10-12T22:04:35.374Z,12.10
2023-10-12T22:07:06.659Z,13.07
2023-10-12T22:09:35.796Z,12.85
2023-10-12T22:12:03.400Z,12.75
2023-10-12T22:14:47.660Z,12.95
2023-10-12T22:17:18.086Z,13.88
2023-10-12T22:19:45.687Z,12.93
2023-10-12T22:22:12.709Z,12.50
2023-10-12T22:24:39.504Z,11.55
2023-10-12T22:27:06.197Z,11.68
2023-10-12T22:29:33.025Z,12.48
2023-10-12T22:32:00.073Z,12.82
2023-10-12T22:34:27.767Z,13.23
2023-10-12T22:36:54.535Z,12.05
2023-10-12T22:39:30.532Z,12.55
2023-10-12T22:41:58.044Z,13.27
2023-10-12T22:44:24.928Z,11.98
2023-10-12T22:46:51.694Z,12.63
2023-10-12T22:49:19.406Z,11.60
2023-10-12T22:51:47.920Z,13.02
2023-10-12T22:54:17.196Z,11.18
2023-10-12T22:56:44.454Z,12.77
2023-10-12T22:59:11.525Z,13.43
2023-10-12T23:01:39.678Z,12.38
2023-10-12T23:04:06.672Z,13.25
2023-10-12T23:06:34.456Z,11.82
2023-10-12T23:09:03.301Z,13.18
2023-10-12T23:11:34.547Z,10.80
2023-10-12T23:14:01.817Z,12.30
2023-10-12T23:16:30.803Z,12.77
2023-10-12T23:18:57.789Z,12.23
2023-10-12T23:21:30.210Z,14.13
2023-10-12T23:23:58.464Z,13.52
2023-10-12T23:26:30.511Z,12.57
2023-10-12T23:28:58.019Z,13.30
2023-10-12T23:31:27.343Z,12.63
2023-10-12T23:33:56.222Z,12.40
2023-10-12T23:36:25.930Z,12.85
2023-10-12T23:39:01.669Z,12.25
2023-10-12T23:41:33.030Z,12.07
2023-10-12T23:44:02.399Z,12.55
2023-10-12T23:46:34.171Z,12.35
2023-10-12T23:49:21.036Z,12.50
2023-10-12T23:51:48.167Z,11.80
2023-10-12T23:54:26.217Z,10.82
2023-10-12T23:56:58.679Z,11.55
2023-10-12T23:59:28.464Z,11.15
